sensor_id;sensor_type;location;lat;lon;timestamp;P1;durP1;ratioP1;P2;durP2;ratioP2
23802;SDS011;12082;51.786;6.018;2022-10-16T00:01:06;16.70;;;15.60;;
23802;SDS011;12082;51.786;6.018;2022-10-16T00:03:33;17.73;;;16.00;;
23802;SDS011;12082;51.786;6.018;2022-10-16T00:05:59;19.17;;;17.10;;
23802;SDS011;12082;51.786;6.018;2022-10-16T00:08:26;17.83;;;16.43;;
23802;SDS011;12082;51.786;6.018;2022-10-16T00:10:52;18.00;;;16.30;;
23802;SDS011;12082;51.786;6.018;2022-10-16T00:13:18;18.37;;;16.90;;
23802;SDS011;12082;51.786;6.018;2022-10-16T00:15:45;16.53;;;15.33;;
23802;SDS011;12082;51.786;6.018;2022-10-16T00:18:11;15.30;;;14.20;;
23802;SDS011;12082;51.786;6.018;2022-10-16T00:20:39;15.33;;;14.00;;
23802;SDS011;12082;51.786;6.018;2022-10-16T00:23:05;16.97;;;13.90;;
23802;SDS011;12082;51.786;6.018;2022-10-16T00:25:31;15.77;;;14.23;;
23802;SDS011;12082;51.786;6.018;2022-10-16T00:28:01;18.40;;;13.47;;
23802;SDS011;12082;51.786;6.018;2022-10-16T00:30:27;14.90;;;13.83;;
23802;SDS011;12082;51.786;6.018;2022-10-16T00:32:54;15.03;;;13.50;;
23802;SDS011;12082;51.786;6.018;2022-10-16T00:35:20;15.17;;;13.87;;
23802;SDS011;12082;51.786;6.018;2022-10-16T00:37:45;14.57;;;13.23;;
23802;SDS011;12082;51.786;6.018;2022-10-16T00:40:11;14.90;;;13.77;;
23802;SDS011;12082;51.786;6.018;2022-10-16T00:42:37;14.03;;;12.67;;
23802;SDS011;12082;51.786;6.018;2022-10-16T00:45:04;13.77;;;12.57;;
23802;SDS011;12082;51.786;6.018;2022-10-16T00:47:31;13.33;;;12.37;;
23802;SDS011;12082;51.786;6.018;2022-10-16T00:49:59;14.63;;;13.13;;
23802;SDS011;12082;51.786;6.018;2022-10-16T00:52:26;14.10;;;13.00;;
23802;SDS011;12082;51.786;6.018;2022-10-16T00:54:52;15.03;;;13.63;;
23802;SDS011;12082;51.786;6.018;2022-10-16T00:57:19;15.53;;;12.53;;
23802;SDS011;12082;51.786;6.018;2022-10-16T00:59:45;13.30;;;12.40;;
23802;SDS011;12082;51.786;6.018;2022-10-16T01:02:14;14.47;;;13.10;;
23802;SDS011;12082;51.786;6.018;2022-10-16T01:04:42;15.27;;;13.97;;
23802;SDS011;12082;51.786;6.018;2022-10-16T01:12:09;14.03;;;12.93;;
23802;SDS011;12082;51.786;6.018;2022-10-16T01:14:48;14.73;;;13.43;;
23802;SDS011;12082;51.786;6.018;2022-10-16T01:17:20;14.23;;;13.10;;
23802;SDS011;12082;51.786;6.018;2022-10-16T01:20:01;14.73;;;13.47;;
23802;SDS011;12082;51.786;6.018;2022-10-16T01:22:33;14.00;;;13.00;;
23802;SDS011;12082;51.786;6.018;2022-10-16T01:25:00;16.80;;;14.87;;
23802;SDS011;12082;51.786;6.018;2022-10-16T01:27:30;14.90;;;13.70;;
23802;SDS011;12082;51.786;6.018;2022-10-16T01:30:01;14.70;;;13.37;;
23802;SDS011;12082;51.786;6.018;2022-10-16T01:32:29;14.83;;;13.63;;
23802;SDS011;12082;51.786;6.018;2022-10-16T01:37:32;15.57;;;14.27;;
23802;SDS011;12082;51.786;6.018;2022-10-16T01:39:58;15.03;;;13.93;;
23802;SDS011;12082;51.786;6.018;2022-10-16T01:42:31;14.93;;;13.73;;
23802;SDS011;12082;51.786;6.018;2022-10-16T01:45:00;16.90;;;15.60;;
23802;SDS011;12082;51.786;6.018;2022-10-16T01:47:26;17.03;;;15.63;;
23802;SDS011;12082;51.786;6.018;2022-10-16T01:49:52;17.13;;;16.03;;
23802;SDS011;12082;51.786;6.018;2022-10-16T01:52:21;19.07;;;17.43;;
23802;SDS011;12082;51.786;6.018;2022-10-16T01:54:49;17.53;;;16.13;;
23802;SDS011;12082;51.786;6.018;2022-10-16T01:57:17;18.67;;;17.33;;
23802;SDS011;12082;51.786;6.018;2022-10-16T01:59:44;17.10;;;15.70;;
23802;SDS011;12082;51.786;6.018;2022-10-16T02:02:12;16.33;;;15.23;;
23802;SDS011;12082;51.786;6.018;2022-10-16T02:07:10;17.03;;;15.83;;
23802;SDS011;12082;51.786;6.018;2022-10-16T02:09:36;15.83;;;14.70;;
23802;SDS011;12082;51.786;6.018;2022-10-16T02:12:05;16.00;;;15.00;;
23802;SDS011;12082;51.786;6.018;2022-10-16T02:14:32;16.90;;;15.53;;
23802;SDS011;12082;51.786;6.018;2022-10-16T02:16:58;16.07;;;14.90;;
23802;SDS011;12082;51.786;6.018;2022-10-16T02:19:24;16.77;;;15.33;;
23802;SDS011;12082;51.786;6.018;2022-10-16T02:21:51;15.63;;;14.63;;
23802;SDS011;12082;51.786;6.018;2022-10-16T02:24:25;16.23;;;15.13;;
23802;SDS011;12082;51.786;6.018;2022-10-16T02:27:10;16.20;;;15.10;;
23802;SDS011;12082;51.786;6.018;2022-10-16T02:29:38;15.37;;;14.47;;
23802;SDS011;12082;51.786;6.018;2022-10-16T02:32:06;15.17;;;13.97;;
23802;SDS011;12082;51.786;6.018;2022-10-16T02:34:34;15.37;;;14.47;;
23802;SDS011;12082;51.786;6.018;2022-10-16T02:37:01;15.00;;;14.00;;
23802;SDS011;12082;51.786;6.018;2022-10-16T02:39:27;14.00;;;13.03;;
23802;SDS011;12082;51.786;6.018;2022-10-16T02:41:54;14.07;;;13.03;;
23802;SDS011;12082;51.786;6.018;2022-10-16T02:44:20;13.37;;;12.33;;
23802;SDS011;12082;51.786;6.018;2022-10-16T02:46:46;11.50;;;10.43;;
23802;SDS011;12082;51.786;6.018;2022-10-16T02:49:12;10.00;;;9.40;;
23802;SDS011;12082;51.786;6.018;2022-10-16T02:51:38;10.27;;;9.50;;
23802;SDS011;12082;51.786;6.018;2022-10-16T02:54:04;10.30;;;9.50;;
23802;SDS011;12082;51.786;6.018;2022-10-16T02:56:30;10.70;;;9.70;;
23802;SDS011;12082;51.786;6.018;2022-10-16T02:58:56;10.07;;;9.20;;
23802;SDS011;12082;51.786;6.018;2022-10-16T03:01:22;10.47;;;9.67;;
23802;SDS011;12082;51.786;6.018;2022-10-16T03:03:48;10.60;;;9.60;;
23802;SDS011;12082;51.786;6.018;2022-10-16T03:06:14;10.70;;;9.93;;
23802;SDS011;12082;51.786;6.018;2022-10-16T03:08:40;10.37;;;9.47;;
23802;SDS011;12082;51.786;6.018;2022-10-16T03:11:06;10.27;;;9.53;;
23802;SDS011;12082;51.786;6.018;2022-10-16T03:13:32;10.63;;;9.83;;
23802;SDS011;12082;51.786;6.018;2022-10-16T03:15:58;10.67;;;9.87;;
23802;SDS011;12082;51.786;6.018;2022-10-16T03:18:24;10.80;;;9.90;;
23802;SDS011;12082;51.786;6.018;2022-10-16T03:20:50;10.27;;;9.67;;
23802;SDS011;12082;51.786;6.018;2022-10-16T03:23:16;11.40;;;10.30;;
23802;SDS011;12082;51.786;6.018;2022-10-16T03:25:42;11.67;;;10.57;;
23802;SDS011;12082;51.786;6.018;2022-10-16T03:28:08;11.03;;;10.33;;
23802;SDS011;12082;51.786;6.018;2022-10-16T03:30:34;10.90;;;10.10;;
23802;SDS011;12082;51.786;6.018;2022-10-16T03:33:00;11.33;;;10.27;;
23802;SDS011;12082;51.786;6.018;2022-10-16T03:35:26;10.60;;;9.93;;
23802;SDS011;12082;51.786;6.018;2022-10-16T03:37:52;10.73;;;10.07;;
23802;SDS011;12082;51.786;6.018;2022-10-16T03:40:18;10.77;;;10.07;;
23802;SDS011;12082;51.786;6.018;2022-10-16T03:42:44;11.70;;;10.77;;
23802;SDS011;12082;51.786;6.018;2022-10-16T03:45:11;10.70;;;10.00;;
23802;SDS011;12082;51.786;6.018;2022-10-16T03:47:37;11.97;;;10.60;;
23802;SDS011;12082;51.786;6.018;2022-10-16T03:50:03;10.73;;;9.93;;
23802;SDS011;12082;51.786;6.018;2022-10-16T03:52:29;11.13;;;10.33;;
23802;SDS011;12082;51.786;6.018;2022-10-16T03:54:57;12.07;;;11.07;;
23802;SDS011;12082;51.786;6.018;2022-10-16T03:57:23;11.60;;;10.73;;
23802;SDS011;12082;51.786;6.018;2022-10-16T03:59:49;11.23;;;10.43;;
23802;SDS011;12082;51.786;6.018;2022-10-16T04:02:15;13.27;;;10.70;;
23802;SDS011;12082;51.786;6.018;2022-10-16T04:04:41;11.97;;;11.30;;
23802;SDS011;12082;51.786;6.018;2022-10-16T04:07:07;11.77;;;11.07;;
23802;SDS011;12082;51.786;6.018;2022-10-16T04:09:33;11.50;;;10.80;;
23802;SDS011;12082;51.786;6.018;2022-10-16T04:11:59;12.80;;;11.90;;
23802;SDS011;12082;51.786;6.018;2022-10-16T04:14:25;12.27;;;11.50;;
23802;SDS011;12082;51.786;6.018;2022-10-16T04:16:51;11.97;;;11.00;;
23802;SDS011;12082;51.786;6.018;2022-10-16T04:19:17;12.30;;;11.07;;
23802;SDS011;12082;51.786;6.018;2022-10-16T04:21:44;12.40;;;11.50;;
23802;SDS011;12082;51.786;6.018;2022-10-16T04:24:10;12.43;;;11.60;;
23802;SDS011;12082;51.786;6.018;2022-10-16T04:26:36;12.30;;;11.30;;
23802;SDS011;12082;51.786;6.018;2022-10-16T04:29:02;12.20;;;11.20;;
23802;SDS011;12082;51.786;6.018;2022-10-16T04:31:28;14.07;;;11.87;;
23802;SDS011;12082;51.786;6.018;2022-10-16T04:33:54;11.80;;;10.97;;
23802;SDS011;12082;51.786;6.018;2022-10-16T04:36:20;12.60;;;11.60;;
23802;SDS011;12082;51.786;6.018;2022-10-16T04:38:46;11.97;;;11.13;;
23802;SDS011;12082;51.786;6.018;2022-10-16T04:41:12;12.63;;;11.70;;
23802;SDS011;12082;51.786;6.018;2022-10-16T04:43:38;11.37;;;10.47;;
23802;SDS011;12082;51.786;6.018;2022-10-16T04:46:04;12.43;;;11.43;;
23802;SDS011;12082;51.786;6.018;2022-10-16T04:48:30;10.90;;;10.30;;
23802;SDS011;12082;51.786;6.018;2022-10-16T04:50:56;12.20;;;11.30;;
23802;SDS011;12082;51.786;6.018;2022-10-16T04:53:22;11.53;;;10.73;;
23802;SDS011;12082;51.786;6.018;2022-10-16T04:55:49;11.03;;;10.33;;
23802;SDS011;12082;51.786;6.018;2022-10-16T04:58:15;10.60;;;10.00;;
23802;SDS011;12082;51.786;6.018;2022-10-16T05:00:41;11.10;;;10.40;;
23802;SDS011;12082;51.786;6.018;2022-10-16T05:03:07;11.30;;;10.60;;
23802;SDS011;12082;51.786;6.018;2022-10-16T05:05:34;11.37;;;10.57;;
23802;SDS011;12082;51.786;6.018;2022-10-16T05:08:00;11.80;;;10.80;;
23802;SDS011;12082;51.786;6.018;2022-10-16T05:10:26;12.20;;;11.30;;
23802;SDS011;12082;51.786;6.018;2022-10-16T05:12:53;12.07;;;11.07;;
23802;SDS011;12082;51.786;6.018;2022-10-16T05:15:18;12.20;;;11.20;;
23802;SDS011;12082;51.786;6.018;2022-10-16T05:17:44;12.47;;;11.57;;
23802;SDS011;12082;51.786;6.018;2022-10-16T05:20:11;12.30;;;11.40;;
23802;SDS011;12082;51.786;6.018;2022-10-16T05:22:37;12.73;;;11.70;;
23802;SDS011;12082;51.786;6.018;2022-10-16T05:25:03;12.10;;;11.07;;
23802;SDS011;12082;51.786;6.018;2022-10-16T05:27:29;12.57;;;11.43;;
23802;SDS011;12082;51.786;6.018;2022-10-16T05:29:55;12.47;;;11.63;;
23802;SDS011;12082;51.786;6.018;2022-10-16T05:32:21;12.07;;;11.10;;
23802;SDS011;12082;51.786;6.018;2022-10-16T05:34:47;11.30;;;10.60;;
23802;SDS011;12082;51.786;6.018;2022-10-16T05:37:13;12.50;;;11.30;;
23802;SDS011;12082;51.786;6.018;2022-10-16T05:39:39;11.97;;;11.00;;
23802;SDS011;12082;51.786;6.018;2022-10-16T05:42:05;12.60;;;11.60;;
23802;SDS011;12082;51.786;6.018;2022-10-16T05:44:31;13.73;;;12.70;;
23802;SDS011;12082;51.786;6.018;2022-10-16T05:46:57;12.50;;;11.67;;
23802;SDS011;12082;51.786;6.018;2022-10-16T05:49:23;13.67;;;12.87;;
23802;SDS011;12082;51.786;6.018;2022-10-16T05:51:49;15.30;;;14.30;;
23802;SDS011;12082;51.786;6.018;2022-10-16T05:54:15;16.10;;;14.93;;
23802;SDS011;12082;51.786;6.018;2022-10-16T05:56:41;17.13;;;16.13;;
23802;SDS011;12082;51.786;6.018;2022-10-16T05:59:07;16.63;;;15.53;;
23802;SDS011;12082;51.786;6.018;2022-10-16T06:01:33;15.23;;;14.33;;
23802;SDS011;12082;51.786;6.018;2022-10-16T06:04:00;14.87;;;13.80;;
23802;SDS011;12082;51.786;6.018;2022-10-16T06:06:26;13.87;;;13.07;;
23802;SDS011;12082;51.786;6.018;2022-10-16T06:08:54;14.10;;;13.30;;
23802;SDS011;12082;51.786;6.018;2022-10-16T06:11:27;14.67;;;13.67;;
23802;SDS011;12082;51.786;6.018;2022-10-16T06:13:57;14.27;;;13.40;;
23802;SDS011;12082;51.786;6.018;2022-10-16T06:16:24;13.90;;;13.00;;
23802;SDS011;12082;51.786;6.018;2022-10-16T06:18:51;13.30;;;12.33;;
23802;SDS011;12082;51.786;6.018;2022-10-16T06:21:18;14.40;;;13.10;;
23802;SDS011;12082;51.786;6.018;2022-10-16T06:23:44;13.40;;;12.30;;
23802;SDS011;12082;51.786;6.018;2022-10-16T06:26:15;14.57;;;13.67;;
23802;SDS011;12082;51.786;6.018;2022-10-16T06:28:41;15.13;;;14.20;;
23802;SDS011;12082;51.786;6.018;2022-10-16T06:31:08;16.87;;;15.60;;
23802;SDS011;12082;51.786;6.018;2022-10-16T06:33:34;17.07;;;15.50;;
23802;SDS011;12082;51.786;6.018;2022-10-16T06:36:03;16.70;;;15.03;;
23802;SDS011;12082;51.786;6.018;2022-10-16T06:38:31;16.13;;;15.03;;
23802;SDS011;12082;51.786;6.018;2022-10-16T06:40:57;15.93;;;14.67;;
23802;SDS011;12082;51.786;6.018;2022-10-16T06:43:23;16.30;;;15.00;;
23802;SDS011;12082;51.786;6.018;2022-10-16T06:45:52;16.10;;;14.97;;
23802;SDS011;12082;51.786;6.018;2022-10-16T06:48:19;15.87;;;14.80;;
23802;SDS011;12082;51.786;6.018;2022-10-16T06:50:54;14.43;;;13.50;;
23802;SDS011;12082;51.786;6.018;2022-10-16T06:53:20;14.63;;;13.43;;
23802;SDS011;12082;51.786;6.018;2022-10-16T06:55:46;13.87;;;12.70;;
23802;SDS011;12082;51.786;6.018;2022-10-16T06:58:12;12.77;;;11.87;;
23802;SDS011;12082;51.786;6.018;2022-10-16T07:00:38;11.97;;;10.97;;
23802;SDS011;12082;51.786;6.018;2022-10-16T07:03:04;12.77;;;11.40;;
23802;SDS011;12082;51.786;6.018;2022-10-16T07:05:30;10.70;;;10.00;;
23802;SDS011;12082;51.786;6.018;2022-10-16T07:07:56;9.60;;;8.87;;
23802;SDS011;12082;51.786;6.018;2022-10-16T07:10:22;12.17;;;8.17;;
23802;SDS011;12082;51.786;6.018;2022-10-16T07:12:51;9.50;;;7.63;;
23802;SDS011;12082;51.786;6.018;2022-10-16T07:15:17;7.90;;;7.30;;
23802;SDS011;12082;51.786;6.018;2022-10-16T07:17:43;7.83;;;7.10;;
23802;SDS011;12082;51.786;6.018;2022-10-16T07:20:09;9.13;;;8.53;;
23802;SDS011;12082;51.786;6.018;2022-10-16T07:22:35;10.20;;;9.40;;
23802;SDS011;12082;51.786;6.018;2022-10-16T07:25:01;10.73;;;9.97;;
23802;SDS011;12082;51.786;6.018;2022-10-16T07:27:27;7.33;;;6.83;;
23802;SDS011;12082;51.786;6.018;2022-10-16T07:29:53;7.27;;;6.67;;
23802;SDS011;12082;51.786;6.018;2022-10-16T07:32:19;10.63;;;7.67;;
23802;SDS011;12082;51.786;6.018;2022-10-16T07:34:45;7.40;;;6.90;;
23802;SDS011;12082;51.786;6.018;2022-10-16T07:37:11;8.60;;;7.80;;
23802;SDS011;12082;51.786;6.018;2022-10-16T07:39:37;8.27;;;7.77;;
23802;SDS011;12082;51.786;6.018;2022-10-16T07:42:03;8.73;;;8.03;;
23802;SDS011;12082;51.786;6.018;2022-10-16T07:44:29;9.20;;;8.60;;
23802;SDS011;12082;51.786;6.018;2022-10-16T07:46:55;9.30;;;8.60;;
23802;SDS011;12082;51.786;6.018;2022-10-16T07:49:22;9.60;;;8.70;;
23802;SDS011;12082;51.786;6.018;2022-10-16T07:51:48;9.87;;;8.97;;
23802;SDS011;12082;51.786;6.018;2022-10-16T07:54:14;9.47;;;8.73;;
23802;SDS011;12082;51.786;6.018;2022-10-16T07:56:40;9.40;;;8.70;;
23802;SDS011;12082;51.786;6.018;2022-10-16T07:59:06;9.90;;;9.30;;
23802;SDS011;12082;51.786;6.018;2022-10-16T08:01:32;11.10;;;10.03;;
23802;SDS011;12082;51.786;6.018;2022-10-16T08:03:58;10.33;;;9.63;;
23802;SDS011;12082;51.786;6.018;2022-10-16T08:06:24;10.27;;;9.47;;
23802;SDS011;12082;51.786;6.018;2022-10-16T08:08:50;9.13;;;8.53;;
23802;SDS011;12082;51.786;6.018;2022-10-16T08:11:16;10.20;;;9.20;;
23802;SDS011;12082;51.786;6.018;2022-10-16T08:13:42;9.53;;;8.70;;
23802;SDS011;12082;51.786;6.018;2022-10-16T08:16:08;10.03;;;9.20;;
23802;SDS011;12082;51.786;6.018;2022-10-16T08:18:38;8.93;;;8.07;;
23802;SDS011;12082;51.786;6.018;2022-10-16T08:21:05;8.43;;;7.83;;
23802;SDS011;12082;51.786;6.018;2022-10-16T08:23:31;9.43;;;7.70;;
23802;SDS011;12082;51.786;6.018;2022-10-16T08:26:01;8.33;;;7.63;;
23802;SDS011;12082;51.786;6.018;2022-10-16T08:28:27;8.17;;;7.63;;
23802;SDS011;12082;51.786;6.018;2022-10-16T08:30:53;8.13;;;7.53;;
23802;SDS011;12082;51.786;6.018;2022-10-16T08:33:21;8.27;;;7.77;;
23802;SDS011;12082;51.786;6.018;2022-10-16T08:35:51;9.70;;;8.80;;
23802;SDS011;12082;51.786;6.018;2022-10-16T08:38:18;9.10;;;8.30;;
23802;SDS011;12082;51.786;6.018;2022-10-16T08:40:44;9.13;;;8.53;;
23802;SDS011;12082;51.786;6.018;2022-10-16T08:45:51;9.53;;;8.53;;
23802;SDS011;12082;51.786;6.018;2022-10-16T08:50:49;9.73;;;8.73;;
23802;SDS011;12082;51.786;6.018;2022-10-16T08:53:36;9.87;;;8.17;;
23802;SDS011;12082;51.786;6.018;2022-10-16T08:56:03;10.97;;;8.93;;
23802;SDS011;12082;51.786;6.018;2022-10-16T08:58:30;10.87;;;10.03;;
23802;SDS011;12082;51.786;6.018;2022-10-16T09:00:57;10.47;;;9.07;;
23802;SDS011;12082;51.786;6.018;2022-10-16T09:08:30;9.77;;;9.10;;
23802;SDS011;12082;51.786;6.018;2022-10-16T09:11:03;10.23;;;9.60;;
23802;SDS011;12082;51.786;6.018;2022-10-16T09:13:51;9.43;;;8.67;;
23802;SDS011;12082;51.786;6.018;2022-10-16T09:16:30;8.87;;;8.27;;
23802;SDS011;12082;51.786;6.018;2022-10-16T09:19:00;9.67;;;8.73;;
23802;SDS011;12082;51.786;6.018;2022-10-16T09:21:30;9.53;;;8.70;;
23802;SDS011;12082;51.786;6.018;2022-10-16T09:24:00;10.40;;;8.43;;
23802;SDS011;12082;51.786;6.018;2022-10-16T09:26:30;9.77;;;8.80;;
23802;SDS011;12082;51.786;6.018;2022-10-16T09:28:56;10.47;;;9.47;;
23802;SDS011;12082;51.786;6.018;2022-10-16T09:31:22;9.33;;;8.47;;
23802;SDS011;12082;51.786;6.018;2022-10-16T09:33:50;9.80;;;8.13;;
23802;SDS011;12082;51.786;6.018;2022-10-16T09:36:17;8.37;;;7.73;;
23802;SDS011;12082;51.786;6.018;2022-10-16T09:38:43;11.63;;;7.70;;
23802;SDS011;12082;51.786;6.018;2022-10-16T09:41:20;8.20;;;7.60;;
23802;SDS011;12082;51.786;6.018;2022-10-16T09:43:52;9.50;;;8.50;;
23802;SDS011;12082;51.786;6.018;2022-10-16T09:46:24;8.60;;;7.90;;
23802;SDS011;12082;51.786;6.018;2022-10-16T09:48:53;8.13;;;7.33;;
23802;SDS011;12082;51.786;6.018;2022-10-16T09:51:21;9.63;;;7.73;;
23802;SDS011;12082;51.786;6.018;2022-10-16T09:53:49;7.37;;;6.67;;
23802;SDS011;12082;51.786;6.018;2022-10-16T09:56:22;7.77;;;7.00;;
23802;SDS011;12082;51.786;6.018;2022-10-16T09:58:52;9.80;;;7.53;;
23802;SDS011;12082;51.786;6.018;2022-10-16T10:01:18;8.47;;;6.90;;
23802;SDS011;12082;51.786;6.018;2022-10-16T10:03:44;8.40;;;7.60;;
23802;SDS011;12082;51.786;6.018;2022-10-16T10:06:23;9.60;;;6.70;;
23802;SDS011;12082;51.786;6.018;2022-10-16T10:11:38;10.37;;;7.00;;
23802;SDS011;12082;51.786;6.018;2022-10-16T10:14:09;8.13;;;7.40;;
23802;SDS011;12082;51.786;6.018;2022-10-16T10:16:39;7.30;;;6.67;;
23802;SDS011;12082;51.786;6.018;2022-10-16T10:19:08;9.93;;;7.10;;
23802;SDS011;12082;51.786;6.018;2022-10-16T10:21:38;12.67;;;6.97;;
23802;SDS011;12082;51.786;6.018;2022-10-16T10:24:04;11.67;;;7.63;;
23802;SDS011;12082;51.786;6.018;2022-10-16T10:26:30;10.90;;;7.53;;
23802;SDS011;12082;51.786;6.018;2022-10-16T10:31:27;13.10;;;7.47;;
23802;SDS011;12082;51.786;6.018;2022-10-16T10:36:35;10.47;;;7.30;;
23802;SDS011;12082;51.786;6.018;2022-10-16T10:39:12;9.60;;;6.67;;
23802;SDS011;12082;51.786;6.018;2022-10-16T10:42:02;14.67;;;7.13;;
23802;SDS011;12082;51.786;6.018;2022-10-16T10:52:34;9.63;;;6.07;;
23802;SDS011;12082;51.786;6.018;2022-10-16T11:05:42;9.37;;;5.10;;
23802;SDS011;12082;51.786;6.018;2022-10-16T11:08:19;9.23;;;5.33;;
23802;SDS011;12082;51.786;6.018;2022-10-16T11:10:50;10.10;;;5.00;;
23802;SDS011;12082;51.786;6.018;2022-10-16T11:13:29;11.97;;;5.57;;
23802;SDS011;12082;51.786;6.018;2022-10-16T11:16:01;8.60;;;5.43;;
23802;SDS011;12082;51.786;6.018;2022-10-16T11:18:41;13.57;;;5.53;;
23802;SDS011;12082;51.786;6.018;2022-10-16T11:21:10;6.83;;;4.90;;
23802;SDS011;12082;51.786;6.018;2022-10-16T11:23:39;14.30;;;5.53;;
23802;SDS011;12082;51.786;6.018;2022-10-16T11:26:09;8.53;;;4.47;;
23802;SDS011;12082;51.786;6.018;2022-10-16T11:29:12;11.23;;;4.70;;
23802;SDS011;12082;51.786;6.018;2022-10-16T11:34:09;9.43;;;5.10;;
23802;SDS011;12082;51.786;6.018;2022-10-16T11:36:49;19.10;;;5.03;;
23802;SDS011;12082;51.786;6.018;2022-10-16T11:39:34;10.43;;;5.10;;
23802;SDS011;12082;51.786;6.018;2022-10-16T11:42:11;16.33;;;5.43;;
23802;SDS011;12082;51.786;6.018;2022-10-16T11:44:44;7.33;;;4.80;;
23802;SDS011;12082;51.786;6.018;2022-10-16T11:47:16;14.53;;;4.93;;
23802;SDS011;12082;51.786;6.018;2022-10-16T11:49:45;8.63;;;5.53;;
23802;SDS011;12082;51.786;6.018;2022-10-16T11:54:56;8.53;;;5.10;;
23802;SDS011;12082;51.786;6.018;2022-10-16T11:57:24;8.53;;;5.00;;
23802;SDS011;12082;51.786;6.018;2022-10-16T12:05:15;7.90;;;4.60;;
23802;SDS011;12082;51.786;6.018;2022-10-16T12:08:01;11.80;;;4.83;;
23802;SDS011;12082;51.786;6.018;2022-10-16T12:10:28;8.77;;;4.60;;
23802;SDS011;12082;51.786;6.018;2022-10-16T12:12:56;15.97;;;5.50;;
23802;SDS011;12082;51.786;6.018;2022-10-16T12:15:30;8.70;;;5.50;;
23802;SDS011;12082;51.786;6.018;2022-10-16T12:17:56;10.43;;;5.03;;
23802;SDS011;12082;51.786;6.018;2022-10-16T12:22:50;11.10;;;5.27;;
23802;SDS011;12082;51.786;6.018;2022-10-16T12:25:29;12.23;;;4.90;;
23802;SDS011;12082;51.786;6.018;2022-10-16T12:30:25;9.87;;;5.40;;
23802;SDS011;12082;51.786;6.018;2022-10-16T12:32:55;9.27;;;5.17;;
23802;SDS011;12082;51.786;6.018;2022-10-16T12:35:23;15.27;;;5.20;;
23802;SDS011;12082;51.786;6.018;2022-10-16T12:37:49;12.07;;;5.80;;
23802;SDS011;12082;51.786;6.018;2022-10-16T12:40:23;12.97;;;5.47;;
23802;SDS011;12082;51.786;6.018;2022-10-16T12:42:49;12.23;;;4.97;;
23802;SDS011;12082;51.786;6.018;2022-10-16T12:45:32;11.80;;;4.70;;
23802;SDS011;12082;51.786;6.018;2022-10-16T12:47:59;15.77;;;5.67;;
23802;SDS011;12082;51.786;6.018;2022-10-16T12:50:33;11.80;;;4.97;;
23802;SDS011;12082;51.786;6.018;2022-10-16T12:53:00;8.90;;;4.50;;
23802;SDS011;12082;51.786;6.018;2022-10-16T12:55:26;10.43;;;5.47;;
23802;SDS011;12082;51.786;6.018;2022-10-16T12:58:00;15.93;;;6.57;;
23802;SDS011;12082;51.786;6.018;2022-10-16T13:03:21;11.10;;;5.33;;
23802;SDS011;12082;51.786;6.018;2022-10-16T13:11:05;5.00;;;4.50;;
23802;SDS011;12082;51.786;6.018;2022-10-16T13:21:21;11.83;;;5.00;;
23802;SDS011;12082;51.786;6.018;2022-10-16T13:24:02;10.70;;;4.70;;
23802;SDS011;12082;51.786;6.018;2022-10-16T13:29:08;11.53;;;5.10;;
23802;SDS011;12082;51.786;6.018;2022-10-16T13:31:36;10.23;;;4.63;;
23802;SDS011;12082;51.786;6.018;2022-10-16T13:34:03;8.70;;;4.87;;
23802;SDS011;12082;51.786;6.018;2022-10-16T13:36:35;9.37;;;4.40;;
23802;SDS011;12082;51.786;6.018;2022-10-16T13:39:11;9.03;;;4.50;;
23802;SDS011;12082;51.786;6.018;2022-10-16T13:41:38;5.57;;;4.07;;
23802;SDS011;12082;51.786;6.018;2022-10-16T13:44:04;6.03;;;4.30;;
23802;SDS011;12082;51.786;6.018;2022-10-16T13:46:30;8.97;;;4.83;;
23802;SDS011;12082;51.786;6.018;2022-10-16T13:49:03;15.20;;;4.67;;
23802;SDS011;12082;51.786;6.018;2022-10-16T13:51:30;8.13;;;4.87;;
23802;SDS011;12082;51.786;6.018;2022-10-16T13:53:56;15.67;;;4.97;;
23802;SDS011;12082;51.786;6.018;2022-10-16T13:56:24;12.97;;;4.53;;
23802;SDS011;12082;51.786;6.018;2022-10-16T13:59:00;4.73;;;3.97;;
23802;SDS011;12082;51.786;6.018;2022-10-16T14:01:30;7.37;;;4.30;;
23802;SDS011;12082;51.786;6.018;2022-10-16T14:04:04;9.37;;;4.67;;
23802;SDS011;12082;51.786;6.018;2022-10-16T14:06:30;8.17;;;4.50;;
23802;SDS011;12082;51.786;6.018;2022-10-16T14:09:06;10.67;;;4.73;;
23802;SDS011;12082;51.786;6.018;2022-10-16T14:11:33;7.33;;;4.30;;
23802;SDS011;12082;51.786;6.018;2022-10-16T14:14:02;5.93;;;4.57;;
23802;SDS011;12082;51.786;6.018;2022-10-16T14:16:29;5.30;;;4.90;;
23802;SDS011;12082;51.786;6.018;2022-10-16T14:19:02;8.03;;;4.20;;
23802;SDS011;12082;51.786;6.018;2022-10-16T14:21:31;9.00;;;4.80;;
23802;SDS011;12082;51.786;6.018;2022-10-16T14:23:57;11.90;;;4.73;;
23802;SDS011;12082;51.786;6.018;2022-10-16T14:26:24;10.03;;;4.87;;
23802;SDS011;12082;51.786;6.018;2022-10-16T14:29:02;8.37;;;4.43;;
23802;SDS011;12082;51.786;6.018;2022-10-16T14:33:55;9.17;;;4.90;;
23802;SDS011;12082;51.786;6.018;2022-10-16T14:36:21;7.63;;;5.23;;
23802;SDS011;12082;51.786;6.018;2022-10-16T14:38:54;10.87;;;5.30;;
23802;SDS011;12082;51.786;6.018;2022-10-16T14:41:22;9.80;;;4.87;;
23802;SDS011;12082;51.786;6.018;2022-10-16T14:43:55;7.10;;;5.23;;
23802;SDS011;12082;51.786;6.018;2022-10-16T14:46:22;7.17;;;5.07;;
23802;SDS011;12082;51.786;6.018;2022-10-16T14:48:55;6.40;;;5.00;;
23802;SDS011;12082;51.786;6.018;2022-10-16T14:51:23;5.10;;;4.73;;
23802;SDS011;12082;51.786;6.018;2022-10-16T14:53:49;5.50;;;5.00;;
23802;SDS011;12082;51.786;6.018;2022-10-16T14:56:19;8.63;;;5.07;;
23802;SDS011;12082;51.786;6.018;2022-10-16T14:58:47;7.13;;;5.10;;
23802;SDS011;12082;51.786;6.018;2022-10-16T15:01:13;8.37;;;5.07;;
23802;SDS011;12082;51.786;6.018;2022-10-16T15:03:39;8.23;;;4.70;;
23802;SDS011;12082;51.786;6.018;2022-10-16T15:06:11;6.27;;;4.70;;
23802;SDS011;12082;51.786;6.018;2022-10-16T15:08:38;7.73;;;5.07;;
23802;SDS011;12082;51.786;6.018;2022-10-16T15:11:04;4.87;;;4.47;;
23802;SDS011;12082;51.786;6.018;2022-10-16T15:13:30;6.40;;;4.70;;
23802;SDS011;12082;51.786;6.018;2022-10-16T15:15:56;6.03;;;5.47;;
23802;SDS011;12082;51.786;6.018;2022-10-16T15:18:23;8.93;;;5.30;;
23802;SDS011;12082;51.786;6.018;2022-10-16T15:20:50;5.77;;;5.17;;
23802;SDS011;12082;51.786;6.018;2022-10-16T15:23:17;7.63;;;4.60;;
23802;SDS011;12082;51.786;6.018;2022-10-16T15:25:45;5.73;;;4.80;;
23802;SDS011;12082;51.786;6.018;2022-10-16T15:28:11;5.70;;;4.90;;
23802;SDS011;12082;51.786;6.018;2022-10-16T15:30:37;8.13;;;5.10;;
23802;SDS011;12082;51.786;6.018;2022-10-16T15:33:04;5.77;;;5.20;;
23802;SDS011;12082;51.786;6.018;2022-10-16T15:35:30;5.00;;;4.50;;
23802;SDS011;12082;51.786;6.018;2022-10-16T15:37:56;5.60;;;4.80;;
23802;SDS011;12082;51.786;6.018;2022-10-16T15:40:23;6.43;;;5.07;;
23802;SDS011;12082;51.786;6.018;2022-10-16T15:42:49;6.63;;;4.93;;
23802;SDS011;12082;51.786;6.018;2022-10-16T15:45:15;6.33;;;5.23;;
23802;SDS011;12082;51.786;6.018;2022-10-16T15:47:42;7.07;;;5.77;;
23802;SDS011;12082;51.786;6.018;2022-10-16T15:50:12;5.93;;;5.43;;
23802;SDS011;12082;51.786;6.018;2022-10-16T15:52:38;6.37;;;5.77;;
23802;SDS011;12082;51.786;6.018;2022-10-16T15:55:05;5.90;;;5.30;;
23802;SDS011;12082;51.786;6.018;2022-10-16T15:57:31;7.93;;;5.53;;
23802;SDS011;12082;51.786;6.018;2022-10-16T15:59:57;7.13;;;5.50;;
23802;SDS011;12082;51.786;6.018;2022-10-16T16:02:23;7.33;;;5.43;;